createdAt,value
2023-05-06T00:00:40.253Z,29.03
2023-05-06T00:01:40.256Z,29.06
2023-05-06T00:02:40.328Z,29.06
2023-05-06T00:03:40.345Z,29.09
2023-05-06T00:04:40.315Z,29.05
2023-05-06T00:05:40.299Z,29.05
2023-05-06T00:06:40.347Z,29.05
2023-05-06T00:07:40.405Z,29.08
2023-05-06T00:08:40.343Z,29.11
2023-05-06T00:09:40.419Z,29.06
2023-05-06T00:10:40.352Z,29.08
2023-05-06T00:11:40.429Z,29.11
2023-05-06T00:12:40.463Z,29.12
2023-05-06T00:13:40.458Z,29.09
2023-05-06T00:14:40.487Z,29.08
2023-05-06T00:15:40.497Z,29.12
2023-05-06T00:16:40.583Z,29.12
2023-05-06T00:17:40.563Z,29.11
2023-05-06T00:18:40.508Z,29.06
2023-05-06T00:19:40.542Z,29.09
2023-05-06T00:20:40.593Z,29.09
2023-05-06T00:21:40.545Z,29.15
2023-05-06T00:22:40.606Z,29.15
2023-05-06T00:23:40.632Z,29.14
2023-05-06T00:24:40.653Z,29.03
2023-05-06T00:25:40.676Z,29.09
2023-05-06T00:26:40.656Z,29.09
2023-05-06T00:27:40.760Z,29.15
2023-05-06T00:28:40.748Z,29.08
2023-05-06T00:29:40.775Z,29.12
2023-05-06T00:30:40.808Z,29.05
2023-05-06T00:31:40.813Z,29.09
2023-05-06T00:32:40.840Z,29.12
2023-05-06T00:33:40.784Z,29.06
2023-05-06T00:34:40.791Z,29.09
2023-05-06T00:35:40.794Z,29.12
2023-05-06T00:36:40.826Z,29.15
2023-05-06T00:37:41.005Z,29.18
2023-05-06T00:38:40.834Z,29.15
2023-05-06T00:39:40.832Z,29.14
2023-05-06T00:40:40.877Z,29.12
2023-05-06T00:41:40.878Z,29.14
2023-05-06T00:42:40.890Z,29.15
2023-05-06T00:43:41.021Z,29.14
2023-05-06T00:44:41.117Z,29.17
2023-05-06T00:45:40.995Z,29.17
2023-05-06T00:46:41.188Z,29.12
2023-05-06T00:47:41.032Z,29.14
2023-05-06T00:48:41.072Z,29.11
2023-05-06T00:49:41.049Z,29.17
2023-05-06T00:50:41.162Z,29.12
2023-05-06T00:51:41.209Z,29.17
2023-05-06T00:52:41.096Z,29.14
2023-05-06T00:53:41.430Z,29.18
2023-05-06T00:54:41.136Z,29.20
2023-05-06T00:55:41.129Z,29.19
2023-05-06T00:56:41.163Z,29.18
2023-05-06T00:57:41.223Z,29.17
2023-05-06T00:58:41.181Z,29.18
2023-05-06T00:59:41.203Z,29.15
2023-05-06T01:00:41.197Z,29.21
2023-05-06T01:01:41.318Z,29.24
2023-05-06T01:02:47.611Z,29.21
2023-05-06T01:03:42.398Z,29.24
2023-05-06T01:04:41.255Z,29.18
2023-05-06T01:05:41.253Z,29.21
2023-05-06T01:06:41.272Z,29.17
2023-05-06T01:07:41.277Z,29.22
2023-05-06T01:08:41.235Z,29.18
2023-05-06T01:09:41.248Z,29.16
2023-05-06T01:10:41.190Z,29.19
2023-05-06T01:11:41.194Z,29.22
2023-05-06T01:12:41.212Z,29.27
2023-05-06T01:13:41.222Z,29.21
2023-05-06T01:14:41.180Z,29.21
2023-05-06T01:15:41.182Z,29.19
2023-05-06T01:16:41.217Z,29.22
2023-05-06T01:17:41.453Z,29.25
2023-05-06T01:18:41.193Z,29.25
2023-05-06T01:19:41.143Z,29.18
2023-05-06T01:20:41.222Z,29.23
2023-05-06T01:21:41.153Z,29.24
2023-05-06T01:22:41.941Z,29.19
2023-05-06T01:23:41.243Z,29.13
2023-05-06T01:24:41.239Z,29.25
2023-05-06T01:25:41.267Z,29.27
2023-05-06T01:26:41.265Z,29.30
2023-05-06T01:27:41.254Z,29.19
2023-05-06T01:28:41.323Z,29.25
2023-05-06T01:29:41.318Z,29.16
2023-05-06T01:30:41.313Z,29.25
2023-05-06T01:31:41.397Z,29.24
2023-05-06T01:32:41.481Z,29.31
2023-05-06T01:33:41.412Z,29.30
2023-05-06T01:34:41.495Z,29.27
2023-05-06T01:35:41.436Z,29.25
2023-05-06T01:36:42.448Z,29.25
2023-05-06T01:37:41.478Z,29.23
2023-05-06T01:38:41.490Z,29.28
2023-05-06T01:39:42.012Z,29.30
2023-05-06T01:40:41.591Z,29.25
2023-05-06T01:41:41.564Z,29.31
2023-05-06T01:42:41.666Z,29.33
2023-05-06T01:43:41.685Z,29.28
2023-05-06T01:44:41.623Z,29.30
2023-05-06T01:45:41.620Z,29.26
2023-05-06T01:46:41.777Z,29.33
2023-05-06T01:47:41.687Z,29.29
2023-05-06T01:48:41.701Z,29.32
2023-05-06T01:49:41.724Z,29.31
2023-05-06T01:50:41.716Z,29.32
2023-05-06T01:51:41.745Z,29.31
2023-05-06T01:52:41.772Z,29.34
2023-05-06T01:53:41.776Z,29.36
2023-05-06T01:54:41.779Z,29.31
2023-05-06T01:55:41.795Z,29.32
2023-05-06T01:56:41.807Z,29.28
2023-05-06T01:57:41.820Z,29.30
2023-05-06T01:58:41.867Z,29.34
2023-05-06T01:59:41.881Z,29.32
2023-05-06T02:00:41.884Z,29.32
2023-05-06T02:01:41.961Z,29.29
2023-05-06T02:02:42.005Z,29.28
2023-05-06T02:03:41.979Z,29.34
2023-05-06T02:04:41.965Z,29.35
2023-05-06T02:05:42.019Z,29.34
2023-05-06T02:06:41.987Z,29.28
2023-05-06T02:07:42.055Z,29.38
2023-05-06T02:08:42.067Z,29.34
2023-05-06T02:09:42.083Z,29.37
2023-05-06T02:10:42.102Z,29.35
2023-05-06T02:11:42.161Z,29.34
2023-05-06T02:12:42.217Z,29.35
2023-05-06T02:13:42.194Z,29.37
2023-05-06T02:14:42.206Z,29.34
2023-05-06T02:15:42.238Z,29.34
2023-05-06T02:16:42.225Z,29.34
2023-05-06T02:17:42.242Z,29.37
2023-05-06T02:18:42.275Z,29.35
2023-05-06T02:19:42.365Z,29.37
2023-05-06T02:20:42.324Z,29.38
2023-05-06T02:21:42.332Z,29.35
2023-05-06T02:22:42.422Z,29.38
2023-05-06T02:23:42.416Z,29.37
2023-05-06T02:24:42.391Z,29.40
2023-05-06T02:25:42.405Z,29.43
2023-05-06T02:26:42.433Z,29.38
2023-05-06T02:27:42.428Z,29.34
2023-05-06T02:28:42.480Z,29.41
2023-05-06T02:29:42.513Z,29.35
2023-05-06T02:30:42.529Z,29.40
2023-05-06T02:31:42.586Z,29.37
2023-05-06T02:32:42.623Z,29.38
2023-05-06T02:33:42.650Z,29.37
2023-05-06T02:34:42.834Z,29.35
2023-05-06T02:35:42.794Z,29.41
2023-05-06T02:36:42.801Z,29.40
2023-05-06T02:37:42.749Z,29.38
2023-05-06T02:38:42.817Z,29.38
2023-05-06T02:39:42.814Z,29.39
2023-05-06T02:40:42.825Z,29.35
2023-05-06T02:41:42.832Z,29.48
2023-05-06T02:42:42.869Z,29.38
2023-05-06T02:43:42.911Z,29.35
2023-05-06T02:44:42.879Z,29.41
2023-05-06T02:45:42.967Z,29.35
2023-05-06T02:46:42.953Z,29.36
2023-05-06T02:47:43.006Z,29.37
2023-05-06T02:48:43.046Z,29.39
2023-05-06T02:49:43.047Z,29.39
2023-05-06T02:50:43.016Z,29.35
2023-05-06T02:51:43.055Z,29.33
2023-05-06T02:52:43.055Z,29.41
2023-05-06T02:53:43.091Z,29.40
2023-05-06T02:54:43.101Z,29.38
2023-05-06T02:55:43.111Z,29.34
2023-05-06T02:56:43.137Z,29.41
2023-05-06T02:57:43.223Z,29.39
2023-05-06T02:58:43.195Z,29.43
2023-05-06T02:59:43.227Z,29.41
2023-05-06T03:00:43.216Z,29.41
2023-05-06T03:01:43.315Z,29.41
2023-05-06T03:02:43.370Z,29.38
2023-05-06T03:03:43.287Z,29.37
2023-05-06T03:04:43.383Z,29.38
2023-05-06T03:05:44.367Z,29.35
2023-05-06T03:06:43.396Z,29.38
2023-05-06T03:07:43.515Z,29.39
2023-05-06T03:08:43.473Z,29.40
2023-05-06T03:09:43.491Z,29.47
2023-05-06T03:10:43.628Z,29.41
2023-05-06T03:11:43.503Z,29.42
2023-05-06T03:12:43.572Z,29.35
2023-05-06T03:13:43.619Z,29.35
2023-05-06T03:14:43.617Z,29.38
2023-05-06T03:15:43.669Z,29.35
2023-05-06T03:16:43.679Z,29.39
2023-05-06T03:17:44.138Z,29.38
2023-05-06T03:18:43.715Z,29.36
2023-05-06T03:19:43.748Z,29.42
2023-05-06T03:20:43.801Z,29.42
2023-05-06T03:21:43.898Z,29.42
2023-05-06T03:22:43.857Z,29.45
2023-05-06T03:23:43.853Z,29.42
2023-05-06T03:24:43.913Z,29.43
2023-05-06T03:25:43.963Z,29.44
2023-05-06T03:26:44.026Z,29.43
2023-05-06T03:27:44.009Z,29.45
2023-05-06T03:28:43.989Z,29.50
2023-05-06T03:29:44.017Z,29.43
2023-05-06T03:30:44.084Z,29.48
2023-05-06T03:31:44.112Z,29.43
2023-05-06T03:32:44.127Z,29.45
2023-05-06T03:33:44.144Z,29.45
2023-05-06T03:34:44.169Z,29.45
2023-05-06T03:35:44.219Z,29.41
2023-05-06T03:36:44.378Z,29.47
2023-05-06T03:37:44.292Z,29.46
2023-05-06T03:38:44.296Z,29.42
2023-05-06T03:39:44.329Z,29.48
2023-05-06T03:40:44.336Z,29.45
2023-05-06T03:41:44.358Z,29.45
2023-05-06T03:42:44.394Z,29.46
2023-05-06T03:43:44.457Z,29.41
2023-05-06T03:44:44.478Z,29.46
2023-05-06T03:45:44.478Z,29.46
2023-05-06T03:46:44.587Z,29.51
2023-05-06T03:47:44.592Z,29.48
2023-05-06T03:48:44.593Z,29.46
2023-05-06T03:49:44.601Z,29.53
2023-05-06T03:50:44.982Z,29.48
2023-05-06T03:51:44.684Z,29.45
2023-05-06T03:52:44.731Z,29.43
2023-05-06T03:53:44.751Z,29.50
2023-05-06T03:54:45.009Z,29.48
2023-05-06T03:55:44.806Z,29.49
2023-05-06T03:56:44.856Z,29.52
2023-05-06T03:57:44.938Z,29.53
2023-05-06T03:58:44.873Z,29.50
2023-05-06T03:59:44.938Z,29.47
2023-05-06T04:00:44.945Z,29.54
2023-05-06T04:01:45.018Z,29.45
2023-05-06T04:02:46.001Z,29.43
2023-05-06T04:03:45.146Z,29.49
2023-05-06T04:04:45.077Z,29.50
2023-05-06T04:05:45.086Z,29.46
2023-05-06T04:06:45.133Z,29.58
2023-05-06T04:07:45.146Z,29.49
2023-05-06T04:08:45.214Z,29.54
2023-05-06T04:09:45.225Z,29.52
2023-05-06T04:10:45.237Z,29.58
2023-05-06T04:11:45.277Z,29.57
2023-05-06T04:12:45.335Z,29.51
2023-05-06T04:13:45.344Z,29.54
2023-05-06T04:14:45.423Z,29.53
2023-05-06T04:15:45.355Z,29.55
2023-05-06T04:16:45.452Z,29.52
2023-05-06T04:17:45.527Z,29.57
2023-05-06T04:18:45.477Z,29.54
2023-05-06T04:19:45.439Z,29.60
2023-05-06T04:20:45.501Z,29.55
2023-05-06T04:21:46.005Z,29.54
2023-05-06T04:22:45.556Z,29.54
2023-05-06T04:23:45.620Z,29.57
2023-05-06T04:24:47.484Z,29.57
2023-05-06T04:25:45.626Z,29.54
2023-05-06T04:26:45.644Z,29.54
2023-05-06T04:27:45.641Z,29.51
2023-05-06T04:28:45.704Z,29.54
2023-05-06T04:29:45.703Z,29.57
2023-05-06T04:30:45.933Z,29.57
2023-05-06T04:31:45.803Z,29.59
2023-05-06T04:32:45.841Z,29.58
2023-05-06T04:33:45.848Z,29.61
2023-05-06T04:34:45.842Z,29.54
2023-05-06T04:35:45.905Z,29.58
2023-05-06T04:36:45.964Z,29.60
2023-05-06T04:37:45.911Z,29.55
2023-05-06T04:38:45.945Z,29.57
2023-05-06T04:39:45.956Z,29.72
2023-05-06T04:40:45.998Z,29.61
2023-05-06T04:41:46.045Z,29.70
2023-05-06T04:42:46.057Z,29.70
2023-05-06T04:43:46.115Z,29.73
2023-05-06T04:44:46.125Z,29.73
2023-05-06T04:45:46.567Z,29.75
2023-05-06T04:46:46.262Z,29.76
2023-05-06T04:47:46.278Z,29.76
2023-05-06T04:48:46.258Z,29.78
2023-05-06T04:49:46.284Z,29.79
2023-05-06T04:50:46.307Z,29.87
2023-05-06T04:51:46.334Z,29.85
2023-05-06T04:52:46.340Z,29.79
2023-05-06T04:53:46.365Z,29.79
2023-05-06T04:54:46.393Z,29.76
2023-05-06T04:55:46.407Z,29.82
2023-05-06T04:56:46.427Z,29.80
2023-05-06T04:57:46.521Z,29.80
2023-05-06T04:58:46.502Z,29.84
2023-05-06T04:59:46.567Z,29.85
2023-05-06T05:00:46.561Z,29.80
2023-05-06T05:01:46.685Z,29.85
2023-05-06T05:02:46.678Z,29.88
2023-05-06T05:03:46.833Z,29.79
2023-05-06T05:04:46.704Z,29.88
2023-05-06T05:05:46.712Z,29.86
2023-05-06T05:06:46.715Z,29.85
2023-05-06T05:07:47.533Z,29.92
2023-05-06T05:08:46.744Z,29.94
2023-05-06T05:09:46.776Z,29.93
2023-05-06T05:10:46.750Z,29.93
2023-05-06T05:11:46.852Z,29.99
2023-05-06T05:12:46.868Z,29.96
2023-05-06T05:13:46.884Z,30.00
2023-05-06T05:14:46.862Z,29.98
2023-05-06T05:15:46.898Z,30.03
2023-05-06T05:16:46.938Z,30.09
2023-05-06T05:17:46.971Z,30.06
2023-05-06T05:18:46.998Z,29.98
2023-05-06T05:19:47.027Z,30.04
2023-05-06T05:20:47.050Z,30.06
2023-05-06T05:21:47.067Z,30.04
2023-05-06T05:22:47.186Z,30.10
2023-05-06T05:23:47.152Z,30.03
2023-05-06T05:24:47.109Z,30.07
2023-05-06T05:25:47.183Z,30.09
2023-05-06T05:26:47.205Z,30.12
2023-05-06T05:27:47.287Z,30.13
2023-05-06T05:28:47.270Z,30.10
2023-05-06T05:29:47.317Z,30.13
2023-05-06T05:30:47.483Z,30.16
2023-05-06T05:31:47.458Z,30.16
2023-05-06T05:32:47.557Z,30.13
2023-05-06T05:33:47.482Z,30.12
2023-05-06T05:34:47.455Z,30.16
2023-05-06T05:35:47.439Z,30.13
2023-05-06T05:36:47.481Z,30.18
2023-05-06T05:37:48.045Z,30.18
2023-05-06T05:38:47.591Z,30.18
2023-05-06T05:39:47.603Z,30.16
2023-05-06T05:40:47.612Z,30.13
2023-05-06T05:41:47.663Z,30.15
2023-05-06T05:42:47.687Z,30.16
2023-05-06T05:43:47.733Z,30.16
2023-05-06T05:44:47.767Z,30.13
2023-05-06T05:45:47.833Z,30.18
2023-05-06T05:46:47.952Z,30.22
2023-05-06T05:47:47.862Z,30.19
2023-05-06T05:48:47.916Z,30.20
2023-05-06T05:49:47.924Z,30.24
2023-05-06T05:50:47.974Z,30.22
2023-05-06T05:51:47.977Z,30.25
2023-05-06T05:52:48.046Z,30.24
2023-05-06T05:53:48.008Z,30.31
2023-05-06T05:54:48.053Z,30.25
2023-05-06T05:55:48.095Z,30.25
2023-05-06T05:56:48.136Z,30.30
2023-05-06T05:57:48.197Z,30.33
2023-05-06T05:58:48.214Z,30.31
2023-05-06T05:59:48.261Z,30.36
2023-05-06T06:00:48.309Z,30.37
2023-05-06T06:01:48.278Z,30.39
2023-05-06T06:02:48.384Z,30.56
2023-05-06T06:03:48.485Z,30.43
2023-05-06T06:04:48.382Z,30.42
2023-05-06T06:05:48.442Z,30.46
2023-05-06T06:06:48.408Z,30.47
2023-05-06T06:07:48.498Z,30.40
2023-05-06T06:08:48.506Z,30.45
2023-05-06T06:09:48.526Z,30.48
2023-05-06T06:10:48.536Z,30.54
2023-05-06T06:11:48.601Z,30.49
2023-05-06T06:12:48.641Z,30.54
2023-05-06T06:13:48.616Z,30.52
2023-05-06T06:14:48.700Z,30.52
2023-05-06T06:15:48.764Z,30.57
2023-05-06T06:16:48.744Z,30.52
2023-05-06T06:17:48.820Z,30.53
2023-05-06T06:18:48.787Z,30.53
2023-05-06T06:19:48.804Z,30.57
2023-05-06T06:20:49.645Z,30.62
2023-05-06T06:21:48.888Z,30.75
2023-05-06T06:22:48.953Z,30.78
2023-05-06T06:23:48.936Z,30.81
2023-05-06T06:24:48.995Z,30.77
2023-05-06T06:25:48.978Z,30.69
2023-05-06T06:26:49.097Z,30.85
2023-05-06T06:27:49.104Z,30.91
2023-05-06T06:28:49.135Z,30.96
2023-05-06T06:29:49.107Z,30.89
2023-05-06T06:30:49.146Z,31.02
2023-05-06T06:31:49.220Z,31.15
2023-05-06T06:32:49.331Z,31.21
2023-05-06T06:33:49.350Z,31.19
2023-05-06T06:34:49.252Z,31.00
2023-05-06T06:35:49.327Z,31.07
2023-05-06T06:36:49.369Z,31.13
2023-05-06T06:37:49.410Z,31.28
2023-05-06T06:38:49.505Z,31.42
2023-05-06T06:39:49.443Z,31.33
2023-05-06T06:40:49.500Z,31.46
2023-05-06T06:41:49.524Z,31.42
2023-05-06T06:42:49.606Z,31.44
2023-05-06T06:43:49.574Z,31.45
2023-05-06T06:44:49.686Z,31.56
2023-05-06T06:45:49.694Z,31.56
2023-05-06T06:46:49.669Z,31.55
2023-05-06T06:47:49.730Z,31.59
2023-05-06T06:48:49.783Z,31.51
2023-05-06T06:49:49.788Z,31.44
2023-05-06T06:50:49.816Z,31.72
2023-05-06T06:51:49.899Z,31.52
2023-05-06T06:52:49.921Z,31.84
2023-05-06T06:53:49.933Z,31.69
2023-05-06T06:54:49.920Z,31.51
2023-05-06T06:55:50.081Z,31.59
2023-05-06T06:56:50.033Z,31.65
2023-05-06T06:57:50.085Z,31.65
2023-05-06T06:58:52.383Z,31.66
2023-05-06T06:59:50.084Z,31.75
2023-05-06T07:00:50.147Z,31.89
2023-05-06T07:01:50.116Z,31.80
2023-05-06T07:02:50.077Z,31.77
2023-05-06T07:03:50.105Z,31.87
2023-05-06T07:04:50.077Z,31.82
2023-05-06T07:05:50.035Z,31.87
2023-05-06T07:06:50.019Z,31.86
2023-05-06T07:07:50.026Z,31.81
2023-05-06T07:08:50.053Z,31.83
2023-05-06T07:09:50.056Z,31.87
2023-05-06T07:10:50.240Z,31.83
2023-05-06T07:11:50.072Z,31.83
2023-05-06T07:12:50.065Z,31.92
2023-05-06T07:13:50.033Z,31.83
2023-05-06T07:14:50.022Z,31.78
2023-05-06T07:15:49.970Z,31.86
2023-05-06T07:16:51.441Z,32.01
2023-05-06T07:17:49.995Z,31.92
2023-05-06T07:18:49.958Z,31.83
2023-05-06T07:19:50.014Z,31.87
2023-05-06T07:20:50.016Z,31.83
2023-05-06T07:21:49.941Z,31.83
2023-05-06T07:22:49.931Z,31.82
2023-05-06T07:23:49.974Z,31.77
2023-05-06T07:24:49.933Z,31.89
2023-05-06T07:25:49.934Z,31.92
2023-05-06T07:26:49.953Z,31.98
2023-05-06T07:27:49.980Z,31.92
2023-05-06T07:28:49.915Z,31.82
2023-05-06T07:29:49.892Z,31.72
2023-05-06T07:30:49.978Z,31.76
2023-05-06T07:31:49.862Z,31.85
2023-05-06T07:32:49.883Z,31.89
2023-05-06T07:33:49.853Z,31.70
2023-05-06T07:34:49.890Z,31.87
2023-05-06T07:35:50.615Z,31.82
2023-05-06T07:36:49.865Z,31.71
2023-05-06T07:37:49.852Z,31.67
2023-05-06T07:38:49.821Z,31.85
2023-05-06T07:39:49.830Z,31.74
2023-05-06T07:40:49.857Z,31.75
2023-05-06T07:41:49.915Z,31.80
2023-05-06T07:42:49.982Z,31.81
2023-05-06T07:43:49.963Z,31.71
2023-05-06T07:44:49.980Z,31.58
2023-05-06T07:45:50.063Z,31.70
2023-05-06T07:46:50.228Z,31.71
2023-05-06T07:47:50.220Z,31.70
2023-05-06T07:48:50.150Z,31.63
2023-05-06T07:49:50.181Z,31.53
2023-05-06T07:50:50.165Z,31.59
2023-05-06T07:51:50.215Z,31.64
2023-05-06T07:52:50.222Z,31.59
2023-05-06T07:53:50.304Z,31.63
2023-05-06T07:54:50.294Z,31.60
2023-05-06T07:55:50.303Z,31.41
2023-05-06T07:56:50.373Z,31.36
2023-05-06T07:57:50.463Z,31.43
2023-05-06T07:58:50.496Z,31.35
2023-05-06T07:59:50.539Z,31.55
2023-05-06T08:00:51.093Z,31.37
2023-05-06T08:01:50.464Z,31.35
2023-05-06T08:02:50.550Z,31.39
2023-05-06T08:03:50.657Z,31.44
2023-05-06T08:04:51.758Z,31.47
2023-05-06T08:05:50.579Z,31.43
2023-05-06T08:06:50.617Z,31.43
2023-05-06T08:07:50.634Z,31.44
2023-05-06T08:08:51.113Z,31.38
2023-05-06T08:09:50.741Z,31.40
2023-05-06T08:10:50.749Z,31.37
2023-05-06T08:11:50.793Z,31.44
2023-05-06T08:12:50.847Z,31.53
2023-05-06T08:13:50.891Z,31.60
2023-05-06T08:14:50.894Z,31.52
2023-05-06T08:15:50.917Z,31.47
2023-05-06T08:16:51.122Z,31.46
2023-05-06T08:17:50.993Z,31.39
2023-05-06T08:18:50.964Z,31.44
2023-05-06T08:19:51.000Z,31.46
2023-05-06T08:20:51.097Z,31.52
2023-05-06T08:21:51.075Z,31.50
2023-05-06T08:22:51.094Z,31.56
2023-05-06T08:23:51.150Z,31.54
2023-05-06T08:24:51.217Z,31.52
2023-05-06T08:25:51.228Z,31.58
2023-05-06T08:26:51.222Z,31.65
2023-05-06T08:27:51.275Z,31.71
2023-05-06T08:28:51.282Z,31.70
2023-05-06T08:29:51.321Z,31.67
2023-05-06T08:30:51.394Z,31.64
2023-05-06T08:31:51.400Z,31.61
2023-05-06T08:32:51.494Z,31.59
2023-05-06T08:33:53.868Z,31.64
2023-05-06T08:34:51.447Z,31.65
2023-05-06T08:35:51.465Z,31.76
2023-05-06T08:36:51.395Z,31.67
2023-05-06T08:37:51.417Z,31.67
2023-05-06T08:38:51.410Z,31.61
2023-05-06T08:39:51.382Z,31.66
2023-05-06T08:40:51.367Z,31.74
2023-05-06T08:41:51.392Z,31.73
2023-05-06T08:42:51.414Z,31.64
2023-05-06T08:43:51.345Z,31.70
2023-05-06T08:44:51.345Z,31.58
2023-05-06T08:45:51.404Z,31.73
2023-05-06T08:46:51.388Z,31.65
2023-05-06T08:47:51.364Z,31.52
2023-05-06T08:48:51.325Z,31.58
2023-05-06T08:49:51.342Z,31.63
2023-05-06T08:50:51.300Z,31.62
2023-05-06T08:51:51.314Z,31.67
2023-05-06T08:52:51.292Z,31.61
2023-05-06T08:53:51.310Z,31.61
2023-05-06T08:54:51.277Z,31.60
2023-05-06T08:55:51.267Z,31.58
2023-05-06T08:56:51.640Z,31.54
2023-05-06T08:57:51.298Z,31.48
2023-05-06T08:58:51.243Z,31.60
2023-05-06T08:59:51.257Z,31.55
2023-05-06T09:00:51.292Z,31.55
2023-05-06T09:01:51.233Z,31.54
2023-05-06T09:02:51.278Z,31.45
2023-05-06T09:03:51.681Z,31.54
2023-05-06T09:04:51.233Z,31.50
2023-05-06T09:05:51.179Z,31.52
2023-05-06T09:06:51.194Z,31.50
2023-05-06T09:07:51.219Z,31.40
2023-05-06T09:08:51.157Z,31.40
2023-05-06T09:09:51.165Z,31.46
2023-05-06T09:10:51.179Z,31.45
2023-05-06T09:11:51.184Z,31.45
2023-05-06T09:12:51.251Z,31.37
2023-05-06T09:13:51.241Z,31.40
2023-05-06T09:14:51.220Z,31.45
2023-05-06T09:15:51.108Z,31.49
2023-05-06T09:16:51.173Z,31.37
2023-05-06T09:17:51.295Z,31.33
2023-05-06T09:18:51.112Z,31.33
2023-05-06T09:19:51.123Z,31.37
2023-05-06T09:20:51.097Z,31.30
2023-05-06T09:21:51.083Z,31.33
2023-05-06T09:22:51.042Z,31.21
2023-05-06T09:23:51.075Z,31.28
2023-05-06T09:24:51.056Z,31.36
2023-05-06T09:25:51.632Z,31.43
2023-05-06T09:26:51.013Z,31.31
2023-05-06T09:27:51.039Z,31.42
2023-05-06T09:28:51.037Z,31.25
2023-05-06T09:29:51.006Z,31.21
2023-05-06T09:30:51.017Z,31.36
2023-05-06T09:31:51.004Z,31.12
2023-05-06T09:32:51.075Z,31.31
2023-05-06T09:33:50.970Z,31.40
2023-05-06T09:34:51.045Z,31.42
2023-05-06T09:35:50.993Z,31.45
2023-05-06T09:36:50.951Z,31.40
2023-05-06T09:37:50.969Z,31.40
2023-05-06T09:38:50.945Z,31.15
2023-05-06T09:39:50.917Z,31.29
2023-05-06T09:40:50.933Z,31.43
2023-05-06T09:41:50.931Z,31.45
2023-05-06T09:42:50.940Z,31.39
2023-05-06T09:43:50.936Z,31.28
2023-05-06T09:44:50.926Z,31.15
2023-05-06T09:45:50.945Z,31.21
2023-05-06T09:46:50.958Z,31.39
2023-05-06T09:47:50.894Z,31.37
2023-05-06T09:48:50.872Z,31.32
2023-05-06T09:49:50.874Z,31.41
2023-05-06T09:50:51.043Z,31.49
2023-05-06T09:51:50.841Z,31.50
2023-05-06T09:52:50.864Z,31.46
2023-05-06T09:53:51.212Z,31.49
2023-05-06T09:54:50.856Z,31.34
2023-05-06T09:55:50.830Z,31.25
2023-05-06T09:56:50.823Z,31.43
2023-05-06T09:57:50.817Z,31.48
2023-05-06T09:58:50.843Z,31.38
2023-05-06T09:59:50.765Z,31.34
2023-05-06T10:00:50.808Z,31.34
2023-05-06T10:01:50.850Z,31.37
2023-05-06T10:02:51.064Z,31.31
2023-05-06T10:03:50.950Z,31.30
2023-05-06T10:04:51.337Z,31.25
2023-05-06T10:05:50.888Z,31.30
2023-05-06T10:06:50.896Z,31.35
2023-05-06T10:07:50.896Z,31.31
2023-05-06T10:08:50.945Z,31.28
2023-05-06T10:09:51.003Z,31.37
2023-05-06T10:10:50.976Z,31.31
2023-05-06T10:11:50.962Z,31.33
2023-05-06T10:12:50.986Z,31.25
2023-05-06T10:13:50.953Z,31.21
2023-05-06T10:14:50.992Z,31.27
2023-05-06T10:15:51.022Z,31.31
2023-05-06T10:16:51.065Z,31.30
2023-05-06T10:17:51.143Z,31.30
2023-05-06T10:18:51.084Z,31.18
2023-05-06T10:19:51.083Z,31.19
2023-05-06T10:20:51.148Z,31.22
2023-05-06T10:21:51.091Z,31.28
2023-05-06T10:22:51.292Z,31.29
2023-05-06T10:23:51.103Z,31.28
2023-05-06T10:24:51.173Z,31.32
2023-05-06T10:25:51.232Z,31.28
2023-05-06T10:26:51.227Z,31.22
2023-05-06T10:27:51.242Z,31.36
2023-05-06T10:28:51.250Z,31.43
2023-05-06T10:29:51.249Z,31.39
2023-05-06T10:30:51.254Z,31.44
2023-05-06T10:31:51.296Z,31.38
2023-05-06T10:32:51.338Z,31.30
2023-05-06T10:33:51.315Z,31.27
2023-05-06T10:34:51.313Z,31.27
2023-05-06T10:35:51.306Z,31.30
2023-05-06T10:36:51.390Z,31.24
2023-05-06T10:37:51.365Z,31.35
2023-05-06T10:38:51.507Z,31.29
2023-05-06T10:39:51.408Z,31.33
2023-05-06T10:40:51.441Z,31.27
2023-05-06T10:41:52.207Z,31.29
2023-05-06T10:42:51.509Z,31.48
2023-05-06T10:43:51.478Z,31.42
2023-05-06T10:44:51.486Z,31.57
2023-05-06T10:45:51.535Z,31.56
2023-05-06T10:46:51.549Z,31.54
2023-05-06T10:47:51.665Z,31.45
2023-05-06T10:48:51.571Z,31.48
2023-05-06T10:49:51.581Z,31.50
2023-05-06T10:50:51.651Z,31.53
2023-05-06T10:51:51.653Z,31.57
2023-05-06T10:52:51.666Z,31.38
2023-05-06T10:53:51.693Z,31.43
2023-05-06T10:54:51.862Z,31.35
2023-05-06T10:55:51.700Z,31.41
2023-05-06T10:56:51.730Z,31.51
2023-05-06T10:57:51.733Z,31.39
2023-05-06T10:58:51.733Z,31.38
2023-05-06T10:59:51.826Z,31.44
2023-05-06T11:00:51.885Z,31.36
2023-05-06T11:01:51.793Z,31.27
2023-05-06T11:02:51.880Z,31.45
2023-05-06T11:03:51.864Z,31.30
2023-05-06T11:04:51.884Z,31.35
2023-05-06T11:05:51.856Z,31.35
2023-05-06T11:06:51.889Z,31.41
2023-05-06T11:07:51.879Z,31.35
2023-05-06T11:08:51.926Z,31.47
2023-05-06T11:09:51.957Z,31.45
2023-05-06T11:10:51.967Z,31.53
2023-05-06T11:11:51.988Z,31.56
2023-05-06T11:12:52.018Z,31.50
2023-05-06T11:13:52.018Z,31.48
2023-05-06T11:14:52.067Z,31.44
2023-05-06T11:15:52.156Z,31.42
2023-05-06T11:16:52.122Z,31.53
2023-05-06T11:17:52.156Z,31.47
2023-05-06T11:18:52.183Z,31.45
2023-05-06T11:19:52.176Z,31.50
2023-05-06T11:20:52.207Z,31.51
2023-05-06T11:21:52.181Z,31.58
2023-05-06T11:22:52.203Z,31.56
2023-05-06T11:23:52.263Z,31.63
2023-05-06T11:24:52.256Z,31.56
2023-05-06T11:25:52.251Z,31.44
2023-05-06T11:26:52.326Z,31.43
2023-05-06T11:27:52.329Z,31.28
2023-05-06T11:28:52.698Z,31.44
2023-05-06T11:29:52.415Z,31.41
2023-05-06T11:30:52.379Z,31.35
2023-05-06T11:31:52.383Z,31.39
2023-05-06T11:32:52.429Z,31.32
2023-05-06T11:33:52.483Z,31.32
2023-05-06T11:34:52.431Z,31.26
2023-05-06T11:35:52.492Z,31.38
2023-05-06T11:36:52.509Z,31.26
2023-05-06T11:37:52.583Z,31.32
2023-05-06T11:38:52.688Z,31.28
2023-05-06T11:39:52.568Z,31.22
2023-05-06T11:40:52.646Z,31.18
2023-05-06T11:41:52.653Z,31.29
2023-05-06T11:42:52.820Z,31.23
2023-05-06T11:43:52.758Z,31.22
2023-05-06T11:44:52.664Z,31.44
2023-05-06T11:45:52.819Z,31.35
2023-05-06T11:46:52.815Z,31.26
2023-05-06T11:47:52.906Z,31.20
2023-05-06T11:48:52.800Z,31.26
2023-05-06T11:49:52.924Z,31.32
2023-05-06T11:50:52.812Z,31.11
2023-05-06T11:51:52.930Z,31.07
2023-05-06T11:52:52.861Z,31.14
2023-05-06T11:53:52.869Z,31.05
2023-05-06T11:54:52.913Z,31.26
2023-05-06T11:55:52.944Z,31.29
2023-05-06T11:56:52.888Z,31.31
2023-05-06T11:57:52.957Z,31.20
2023-05-06T11:58:52.999Z,31.22
2023-05-06T11:59:53.008Z,31.16
2023-05-06T12:00:53.015Z,31.29
2023-05-06T12:01:53.026Z,31.22
2023-05-06T12:02:53.169Z,31.10
2023-05-06T12:03:53.189Z,31.10
2023-05-06T12:04:53.231Z,31.10
2023-05-06T12:05:53.129Z,31.17
2023-05-06T12:06:53.161Z,31.22
2023-05-06T12:07:55.700Z,31.20
2023-05-06T12:08:53.278Z,31.12
2023-05-06T12:09:53.324Z,31.20
2023-05-06T12:10:53.363Z,31.13
2023-05-06T12:11:53.432Z,31.19
2023-05-06T12:12:53.434Z,31.14
2023-05-06T12:13:53.421Z,31.14
2023-05-06T12:14:53.505Z,31.16
2023-05-06T12:15:53.522Z,31.17
2023-05-06T12:16:55.950Z,31.17
2023-05-06T12:17:53.798Z,31.16
2023-05-06T12:18:53.716Z,31.11
2023-05-06T12:19:53.727Z,31.16
2023-05-06T12:20:53.724Z,31.10
2023-05-06T12:21:53.836Z,31.08
2023-05-06T12:22:55.447Z,31.11
2023-05-06T12:23:53.927Z,31.16
2023-05-06T12:24:53.884Z,31.10
2023-05-06T12:25:53.893Z,31.14
2023-05-06T12:26:53.921Z,31.14
2023-05-06T12:27:54.924Z,31.07
2023-05-06T12:28:53.936Z,31.12
2023-05-06T12:29:54.012Z,31.08
2023-05-06T12:30:54.065Z,31.14
2023-05-06T12:31:54.086Z,31.08
2023-05-06T12:32:54.198Z,31.10
2023-05-06T12:33:56.031Z,31.14
2023-05-06T12:34:54.139Z,31.05
2023-05-06T12:35:54.084Z,31.07
2023-05-06T12:36:54.116Z,31.02
2023-05-06T12:37:54.090Z,31.12
2023-05-06T12:38:54.085Z,31.08
2023-05-06T12:39:55.129Z,31.08
2023-05-06T12:40:54.078Z,31.09
2023-05-06T12:41:54.064Z,31.08
2023-05-06T12:42:54.706Z,31.07
2023-05-06T12:43:54.068Z,31.02
2023-05-06T12:44:54.104Z,30.99
2023-05-06T12:45:55.100Z,30.98
2023-05-06T12:46:54.348Z,31.07
2023-05-06T12:47:54.366Z,31.04
2023-05-06T12:48:56.208Z,31.07
2023-05-06T12:49:54.363Z,31.05
2023-05-06T12:50:54.360Z,31.04
2023-05-06T12:51:54.365Z,31.07
2023-05-06T12:52:54.374Z,31.06